Flight Track Log - Related Links

Times and Time Zones

All times are in EDT time to prevent confusion due to time zone crossing. See the N61697 flight status page for this flight to view local times or setup timezone preferences in your user account.

Time Position Orientation Groundspeed Altitude Reporting Facility
EDT Latitude Longitude Course Direction KTS MPH feet Rate Location/Type
Sat 10:19:15 PM 29.5889 -81.1778 158° South 101 116 2,500  Level Jacksonville Center
Sat 10:20:15 PM 29.5639 -81.1664 158° South 102 117 2,400 -50 Descending Jacksonville Center
Sat 10:21:16 PM 29.5386 -81.1547 158° South 99 114 2,400 50 Level Jacksonville Center
Sat 10:22:16 PM 29.5114 -81.1481 168° South 97 112 2,500 47 Climbing Jacksonville Center
Sat 10:23:23 PM 29.4819 -81.1367 161° South 98 113 2,500  Level Jacksonville Center
Sat 10:24:24 PM 29.4567 -81.1253 159° South 98 113 2,500  Level Jacksonville Center
Sat 10:25:24 PM 29.4317 -81.1114 154° Southeast 98 113 2,500  Level Jacksonville Center
Sat 10:26:25 PM 29.4064 -81.1000 159° South 100 115 2,500  Level Jacksonville Center
Sat 10:27:26 PM 29.3792 -81.0908 164° South 98 113 2,500 -99 Level Jacksonville Center
Sat 10:28:26 PM 29.3497 -81.0794 161° South 106 122 2,300 -34 Descending Jacksonville Center
Sat 10:30:25 PM 29.3000 -81.0667 167° South 92 106 2,400 67 Climbing Orlando TRACON
Sat 10:31:25 PM 29.2833 -81.0500 139° Southeast 98 113 2,500  Climbing Orlando TRACON
Sat 10:32:25 PM 29.2500 -81.0333 156° South 99 114 2,400 100 Descending Orlando TRACON
Sat 10:33:25 PM 29.2333 -81.0167 139° Southeast 97 112 2,700 200 Climbing Orlando TRACON
Sat 10:34:25 PM 29.2000 -81.0000 156° South 99 114 2,800 50 Climbing Orlando TRACON
Sat 10:35:25 PM 29.1833 -80.9833 139° Southeast 106 122 2,800  Level Orlando TRACON
Sat 10:36:25 PM 29.1500 -80.9833 180° South 94 108 2,800  Level Orlando TRACON
Sat 10:37:31 PM 29.1167 -80.9833 180° South 84 97 2,800  Level Orlando TRACON
Sat 10:38:31 PM 29.1000 -80.9833 180° South 87 100 2,800 -53 Level Orlando TRACON
Sat 10:39:25 PM 29.0833 -80.9833 180° South 92 106 2,700  Descending Orlando TRACON
Sat 10:40:25 PM 29.0500 -80.9833 180° South 94 108 2,800  Climbing Orlando TRACON
Sat 10:41:25 PM 29.0333 -80.9833 180° South 99 114 2,700  Descending Orlando TRACON
Sat 10:42:25 PM 29.0000 -80.9833 180° South 95 109 2,800  Climbing Orlando TRACON
Sat 10:43:25 PM 28.9667 -80.9833 180° South 101 116 2,700 -50 Descending Orlando TRACON
Sat 10:44:25 PM 28.9500 -80.9667 139° Southeast 101 116 2,700  Level Orlando TRACON
Sat 10:45:25 PM 28.9167 -80.9500 156° South 99 114 2,700 50 Level Orlando TRACON
Sat 10:46:25 PM 28.9000 -80.9500 180° South 100 115 2,800 50 Climbing Orlando TRACON
Sat 10:47:26 PM 28.8667 -80.9333 156° South 105 121 2,800  Level Orlando TRACON
Sat 10:48:26 PM 28.8333 -80.9333 180° South 96 110 2,800  Level Orlando TRACON
Sat 10:49:26 PM 28.8167 -80.9167 139° Southeast 107 123 2,800 -50 Level Orlando TRACON
Sat 10:50:26 PM 28.7833 -80.9000 156° South 110 127 2,700 -50 Descending Orlando TRACON
Sat 10:51:26 PM 28.7500 -80.8833 156° South 105 121 2,700 -50 Level Orlando TRACON
Sat 10:52:26 PM 28.7333 -80.8833 180° South 108 124 2,600 -50 Descending Orlando TRACON
Sat 10:53:26 PM 28.7000 -80.8667 156° South 106 122 2,600  Level Orlando TRACON
Sat 10:54:26 PM 28.6667 -80.8667 180° South 107 123 2,600  Level Orlando TRACON
Sat 10:55:26 PM 28.6500 -80.8500 139° Southeast 111 128 2,600 50 Level Orlando TRACON
Sat 10:56:26 PM 28.6167 -80.8333 156° South 107 123 2,700 50 Climbing Orlando TRACON
Sat 10:57:26 PM 28.5833 -80.8167 156° South 111 128 2,700  Level Orlando TRACON
Sat 10:58:26 PM 28.5667 -80.8000 139° Southeast 109 125 2,700  Level Orlando TRACON
Sat 10:59:26 PM 28.5333 -80.8000 180° South 111 128 2,700  Level Orlando TRACON
Sat 11:00:26 PM 28.5000 -80.7833 156° South 106 122 2,700 50 Level Orlando TRACON
Sat 11:01:26 PM 28.4833 -80.7667 139° Southeast 107 123 2,800 50 Climbing Orlando TRACON
Sat 11:02:26 PM 28.4500 -80.7667 180° South 106 122 2,800  Level Orlando TRACON
Sat 11:03:27 PM 28.4167 -80.7500 156° South 106 122 2,800  Level Orlando TRACON
Sat 11:04:27 PM 28.3833 -80.7333 156° South 106 122 2,800 -50 Level Orlando TRACON
Sat 11:05:27 PM 28.3667 -80.7333 180° South 101 116 2,700  Descending Orlando TRACON
Sat 11:06:27 PM 28.3333 -80.7333 180° South 111 128 2,800 50 Climbing Orlando TRACON
Sat 11:07:27 PM 28.3167 -80.7167 139° Southeast 103 119 2,800 -50 Level Orlando TRACON
Sat 11:08:27 PM 28.2833 -80.7000 156° South 105 121 2,700  Descending Orlando TRACON
Sat 11:09:27 PM 28.2500 -80.6833 156° South 105 121 2,800  Climbing Orlando TRACON
Sat 11:11:44 PM 28.1897 -80.6656 165° South 108 124 2,700 -61 Descending Miami Center
Sat 11:12:44 PM 28.1625 -80.6647 178° South 103 119 2,600  Descending Miami Center
Sat 11:13:45 PM 28.1356 -80.6592 170° South 103 119 2,700  Climbing Miami Center
Sat 11:14:44 PM 28.1086 -80.6583 178° South 103 119 2,600 -50 Descending Miami Center
Sat 11:15:46 PM 28.0836 -80.6481 160° South 103 119 2,600 50 Level Miami Center
Sat 11:16:45 PM 28.0569 -80.6331 154° Southeast 103 119 2,700 51 Climbing Miami Center
Sat 11:17:44 PM 28.0322 -80.6203 155° Southeast 103 119 2,700 -50 Level Miami Center
Sat 11:18:45 PM 28.0053 -80.6172 174° South 103 119 2,600 -50 Descending Miami Center
Sat 11:19:43 PM 27.9822 -80.6164 178° South 103 119 2,600 50 Level Miami Center
Sat 11:20:44 PM 27.9553 -80.6131 174° South 103 119 2,700 50 Climbing Miami Center
Sat 11:21:44 PM 27.9239 -80.6119 178° South 103 119 2,700 -50 Level Miami Center
Sat 11:22:43 PM 27.8969 -80.6089 174° South 103 119 2,600 -50 Descending Miami Center
Sat 11:23:45 PM 27.8678 -80.6056 174° South 103 119 2,600 98 Level Miami Center
Sat 11:24:46 PM 27.8428 -80.6047 178° South 103 119 2,800 150 Climbing Miami Center
Sat 11:25:45 PM 27.8114 -80.6014 175° South 103 119 2,900 50 Climbing Miami Center
Sat 11:26:45 PM 27.7822 -80.6003 178° South 103 119 2,900  Level Miami Center
Sat 11:27:46 PM 27.7553 -80.5947 170° South 103 119 2,900  Level Miami Center
Sat 11:28:44 PM 27.7281 -80.5961 183° South 103 119 2,900  Level Miami Center
Sat 11:29:43 PM 27.6969 -80.5906 171° South 103 119 2,900 49 Level Miami Center
Sat 11:30:46 PM 27.6656 -80.5894 178° South 103 119 3,000  Climbing Miami Center
Sat 11:31:44 PM 27.6364 -80.5886 179° South 103 119 2,900  Descending Miami Center
Sat 11:32:45 PM 27.6053 -80.5853 175° South 103 119 3,000 50 Climbing Miami Center
Sat 11:33:45 PM 27.5783 -80.5819 174° South 103 119 3,000 -50 Level Miami Center
Sat 11:34:46 PM 27.5492 -80.5786 174° South 103 119 2,900  Descending Miami Center
Sat 11:35:45 PM 27.5158 -80.5753 175° South 103 119 3,000 51 Climbing Miami Center
Sat 11:36:43 PM 27.4867 -80.5744 179° South 103 119 3,000 -51 Level Miami Center
Sat 11:37:43 PM 27.4553 -80.5733 178° South 103 119 2,900 -50 Descending Miami Center
Sat 11:38:44 PM 27.4281 -80.5725 178° South 103 119 2,900 -49 Level Miami Center
Sat 11:39:45 PM 27.3989 -80.5692 174° South 103 119 2,800 -101 Descending Miami Center
Sat 11:40:43 PM 27.3636 -80.5611 169° South 103 119 2,700 50 Descending Miami Center
Sat 11:41:44 PM 27.3367 -80.5578 174° South 103 119 2,900 148 Climbing Miami Center
Sat 11:42:45 PM 27.3075 -80.5569 179° South 103 119 3,000  Climbing Miami Center
Sat 11:43:43 PM 27.2822 -80.5583 183° South 103 119 2,900 -50 Descending Miami Center
Sat 11:44:44 PM 27.2511 -80.5528 171° South 103 119 2,900  Level Miami Center
Sat 11:45:44 PM 27.2181 -80.5422 164° South 108 124 2,900  Level Miami Center
Sat 11:46:43 PM 27.1889 -80.5344 167° South 108 124 2,900  Level Miami Center
Sat 11:47:44 PM 27.1600 -80.5289 170° South 108 124 2,900  Level Miami Center
Sat 11:48:44 PM 27.1328 -80.5281 178° South 108 124 2,900 50 Level Miami Center
Sat 11:49:43 PM 27.1036 -80.5269 178° South 101 116 3,000 50 Climbing Miami Center
Sat 11:50:44 PM 27.0722 -80.5283 182° South 101 116 3,000  Level Miami Center
Sat 11:51:46 PM 27.0431 -80.5297 182° South 101 116 3,000 -5 Level Miami Center
Sun 12:11:02 AM 26.4883 -80.4961 174° South 100 115 2,900 -5 Descending Miami Center
Sun 12:11:51 AM 26.4675 -80.4933 173° South 99 114 2,900  Level Miami Center
Sun 12:12:51 AM 26.4403 -80.4947 183° South 101 116 2,900  Level Miami Center
Sun 12:13:34 AM 26.4194 -80.4942 179° South 101 116 2,900  Level Miami Center
Sun 12:14:35 AM 26.3903 -80.4908 174° South 100 115 2,900 44 Level Miami Center
Sun 12:15:49 AM 26.3569 -80.4875 175° South 98 113 3,000 -44 Climbing Miami Center
Sun 12:16:51 AM 26.3297 -80.4867 178° South 102 117 2,800 -100 Descending Miami Center
Sun 12:17:49 AM 26.3006 -80.4906 187° South 105 121 2,800 100 Level Miami Center
Sun 12:18:51 AM 26.2756 -80.4828 164° South 99 114 3,000 49 Climbing Miami Center
Sun 12:19:52 AM 26.2464 -80.4794 174° South 106 122 2,900 -49 Descending Miami Center
Sun 12:20:53 AM 26.2194 -80.4742 170° South 105 121 2,900 -53 Level Miami Center
Sun 12:21:45 AM 26.1900 -80.4778 186° South 105 121 2,800 53 Descending Miami Center
Sun 12:22:47 AM 26.1608 -80.4769 179° South 101 116 3,000 97 Climbing Miami Center
Sun 12:23:49 AM 26.1339 -80.4739 174° South 97 112 3,000 -50 Level Miami Center
Sun 12:24:47 AM 26.1089 -80.4708 174° South 103 119 2,900 -51 Descending Miami Center
Sun 12:25:47 AM 26.0756 -80.4675 175° South 106 122 2,900  Level Miami Center
Sun 12:26:50 AM 26.0464 -80.4642 174° South 103 119 2,900  Level Miami Center
Sun 12:27:48 AM 26.0172 -80.4611 175° South 101 116 2,900  Level Miami Center
Sun 12:28:52 AM 25.9900 -80.4603 178° South 97 112 2,900 48 Level Miami Center
Sun 12:29:52 AM 25.9631 -80.4569 174° South 99 114 3,000  Climbing Miami Center
Sun 12:30:53 AM 25.9358 -80.4586 183° South 102 117 2,900 -50 Descending Miami Center
Sun 12:31:51 AM 25.9067 -80.4578 179° South 101 116 2,900  Level Miami Center
Sun 12:32:54 AM 25.8753 -80.4544 175° South 105 121 2,900 -49 Level Miami Center
Sun 12:33:54 AM 25.8483 -80.4467 165° South 104 120 2,800 -53 Descending Miami Center
Sun 12:34:47 AM 25.8214 -80.4436 174° South 102 117 2,800  Level Miami Center
Sun 12:35:43 AM 25.7986 -80.4358 163° South 104 120 2,800  Level Miami Center

Login

Don't have an account? Register now (free) for customized features, flight alerts, and more!